Time;durP1;ratioP1;P1;durP2;ratioP2;P2;SDS_P1;SDS_P2;PMS_P1;PMS_P2;Temp;Humidity;BMP_temperature;BMP_pressure;BME280_temperature;BME280_humidity;BME280_pressure;Samples;Min_cycle;Max_cycle;Signal;HPM_P1;HPM_P2
2023/09/07 00:01:08;;;;;;;10.10;3.60;;;;;;;13.20;81.56;101172.45;109721;1285;22197;-80
2023/09/07 00:03:41;;;;;;;12.40;4.30;;;;;;;13.18;81.65;101171.12;109689;1276;22151;-80
2023/09/07 00:06:12;;;;;;;16.90;5.20;;;;;;;13.16;81.95;101174.64;109681;1280;22295;-80
2023/09/07 00:08:44;;;;;;;14.50;4.90;;;;;;;13.14;82.03;101177.64;109706;1285;22202;-80
2023/09/07 00:11:15;;;;;;;11.20;3.60;;;;;;;13.10;82.13;101181.28;109715;1279;22220;-80
2023/09/07 00:13:45;;;;;;;14.00;4.40;;;;;;;13.07;82.36;101180.70;109674;1285;22661;-79
2023/09/07 00:16:16;;;;;;;14.20;3.80;;;;;;;13.03;82.40;101180.36;109699;1276;22297;-78
2023/09/07 00:18:47;;;;;;;11.00;3.80;;;;;;;12.99;82.36;101177.73;109655;1283;22184;-78
2023/09/07 00:21:18;;;;;;;12.10;4.00;;;;;;;12.98;82.43;101181.17;109679;1273;22172;-79
2023/09/07 00:23:48;;;;;;;13.40;4.30;;;;;;;12.96;82.45;101179.91;109649;1285;22273;-79
2023/09/07 00:26:19;;;;;;;12.00;3.40;;;;;;;12.94;82.45;101180.98;109719;1285;22159;-79
2023/09/07 00:28:49;;;;;;;11.40;3.70;;;;;;;12.91;82.48;101181.67;109687;1285;22337;-79
2023/09/07 00:31:20;;;;;;;10.80;4.00;;;;;;;12.88;82.54;101180.13;109655;1285;22386;-79
2023/09/07 00:33:51;;;;;;;12.20;3.10;;;;;;;12.86;82.67;101181.29;109623;1280;22321;-79
2023/09/07 00:36:21;;;;;;;13.40;4.10;;;;;;;12.82;82.76;101179.10;109666;1285;22155;-79
2023/09/07 00:38:52;;;;;;;13.40;3.20;;;;;;;12.80;83.11;101178.48;109676;1280;23048;-79
2023/09/07 00:41:23;;;;;;;11.60;4.10;;;;;;;12.78;83.11;101180.00;109732;1285;22230;-79
2023/09/07 00:43:53;;;;;;;10.90;3.50;;;;;;;12.76;82.97;101179.03;109676;1285;22511;-80
2023/09/07 00:46:24;;;;;;;11.70;3.80;;;;;;;12.74;82.94;101174.63;109690;1280;22159;-79
2023/09/07 00:48:56;;;;;;;12.20;3.90;;;;;;;12.73;82.93;101176.27;109680;1285;22674;-79
2023/09/07 00:51:27;;;;;;;14.80;4.70;;;;;;;12.73;82.99;101170.86;109678;1280;22358;-79
2023/09/07 00:53:58;;;;;;;15.50;5.20;;;;;;;12.72;83.23;101168.42;109658;1285;22179;-79
2023/09/07 00:56:29;;;;;;;12.10;3.00;;;;;;;12.72;83.28;101162.74;109656;1285;22187;-79
2023/09/07 00:59:00;;;;;;;11.10;3.20;;;;;;;12.71;83.32;101163.59;109693;1285;22368;-79
2023/09/07 01:01:33;;;;;;;13.80;3.50;;;;;;;12.71;83.53;101165.91;109701;1276;22328;-79
2023/09/07 01:04:03;;;;;;;14.00;4.20;;;;;;;12.68;83.49;101165.05;109656;1280;22146;-78
2023/09/07 01:06:39;;;;;;;17.70;4.10;;;;;;;12.65;83.74;101163.45;109688;1285;22186;-80
2023/09/07 01:09:20;;;;;;;16.00;4.30;;;;;;;12.63;83.74;101164.52;109684;1280;23310;-79
2023/09/07 01:11:52;;;;;;;13.80;4.00;;;;;;;12.59;83.80;101168.02;109554;1286;22392;-79
2023/09/07 01:14:23;;;;;;;13.20;4.50;;;;;;;12.56;83.89;101167.55;109689;1280;22332;-79
2023/09/07 01:16:54;;;;;;;11.60;4.10;;;;;;;12.52;84.17;101168.39;109673;1283;23081;-79
2023/09/07 01:19:25;;;;;;;12.50;4.50;;;;;;;12.48;84.06;101165.52;109692;1277;22153;-79
2023/09/07 01:21:56;;;;;;;13.00;3.90;;;;;;;12.44;84.22;101162.52;109690;1280;22318;-79
2023/09/07 01:24:29;;;;;;;11.80;4.60;;;;;;;12.41;84.35;101162.90;109649;1283;22146;-79
2023/09/07 01:27:01;;;;;;;13.60;4.80;;;;;;;12.37;84.09;101164.75;109685;1285;22321;-79
2023/09/07 01:29:33;;;;;;;13.80;4.90;;;;;;;12.35;84.23;101162.35;109679;1281;23102;-79
2023/09/07 01:32:04;;;;;;;12.80;4.80;;;;;;;12.34;84.24;101170.98;109688;1280;22180;-79
2023/09/07 01:34:35;;;;;;;12.40;3.80;;;;;;;12.32;84.33;101169.80;109654;1283;22551;-79
2023/09/07 01:37:06;;;;;;;11.30;3.60;;;;;;;12.30;84.42;101171.79;109690;1278;22157;-79
2023/09/07 01:39:37;;;;;;;12.70;3.40;;;;;;;12.29;84.43;101169.45;109690;1280;22503;-78
2023/09/07 01:42:08;;;;;;;15.90;4.50;;;;;;;12.26;84.48;101164.23;109661;1280;22373;-79
2023/09/07 01:44:39;;;;;;;14.20;3.80;;;;;;;12.24;84.44;101165.45;109665;1285;22162;-79
2023/09/07 01:47:09;;;;;;;10.20;3.10;;;;;;;12.21;84.83;101166.95;109671;1280;22416;-79
2023/09/07 01:49:40;;;;;;;12.10;3.60;;;;;;;12.17;84.68;101166.70;109700;1276;22206;-79
2023/09/07 01:52:11;;;;;;;12.30;3.70;;;;;;;12.14;84.60;101169.33;109687;1285;23297;-79
2023/09/07 01:54:41;;;;;;;12.00;3.80;;;;;;;12.11;84.70;101167.60;109669;1280;22731;-79
2023/09/07 01:57:12;;;;;;;13.40;3.40;;;;;;;12.09;84.93;101167.95;109657;1280;23081;-79
2023/09/07 01:59:48;;;;;;;15.00;4.30;;;;;;;12.06;84.85;101173.98;107531;1285;25290;-79
2023/09/07 02:02:19;;;;;;;12.30;4.40;;;;;;;12.03;84.96;101175.02;107141;1284;24248;-79
2023/09/07 02:04:49;;;;;;;13.10;3.70;;;;;;;12.00;84.82;101172.35;107178;1278;24025;-79
2023/09/07 02:07:20;;;;;;;12.30;4.30;;;;;;;11.96;84.95;101168.36;107205;1279;22556;-78
2023/09/07 02:09:51;;;;;;;10.80;3.10;;;;;;;11.93;84.95;101168.27;107074;1285;22628;-79
2023/09/07 02:12:22;;;;;;;13.70;3.50;;;;;;;11.88;85.01;101166.55;107108;1280;22521;-79
2023/09/07 02:14:53;;;;;;;11.00;3.30;;;;;;;11.83;85.11;101170.18;107122;1283;22621;-79
2023/09/07 02:17:24;;;;;;;14.50;3.70;;;;;;;11.79;85.00;101170.38;107112;1281;23270;-79
2023/09/07 02:19:55;;;;;;;13.60;3.90;;;;;;;11.75;85.15;101173.65;107193;1285;22531;-79
2023/09/07 02:22:26;;;;;;;12.20;3.30;;;;;;;11.71;85.16;101172.80;107243;1283;22551;-78
2023/09/07 02:24:57;;;;;;;13.50;3.50;;;;;;;11.67;85.08;101173.15;107234;1263;22624;-79
2023/09/07 02:27:28;;;;;;;10.60;3.00;;;;;;;11.63;85.17;101176.23;107321;1285;22557;-79
2023/09/07 02:29:59;;;;;;;10.80;2.90;;;;;;;11.60;85.24;101173.23;107272;1280;25293;-79
2023/09/07 02:32:30;;;;;;;13.40;3.60;;;;;;;11.56;85.36;101176.67;106945;1277;25307;-79
2023/09/07 02:35:00;;;;;;;14.10;3.30;;;;;;;11.53;85.39;101178.75;106747;1283;25531;-79
2023/09/07 02:37:31;;;;;;;10.10;2.30;;;;;;;11.48;85.39;101177.80;107041;1272;22537;-79
2023/09/07 02:40:06;;;;;;;12.70;3.60;;;;;;;11.45;85.52;101168.70;107202;1276;23375;-79
2023/09/07 02:42:37;;;;;;;15.50;2.90;;;;;;;11.41;85.62;101169.02;109681;1285;22392;-79
2023/09/07 02:45:10;;;;;;;13.40;3.40;;;;;;;11.38;85.45;101171.77;109676;1284;22295;-79
2023/09/07 02:47:41;;;;;;;13.70;3.80;;;;;;;11.35;85.55;101173.34;109694;1285;22198;-79
2023/09/07 02:50:12;;;;;;;12.50;3.10;;;;;;;11.32;85.67;101176.01;109669;1280;22382;-79
2023/09/07 02:52:43;;;;;;;11.60;3.80;;;;;;;11.29;85.63;101178.45;109718;1280;22189;-79
2023/09/07 02:55:14;;;;;;;12.90;3.50;;;;;;;11.27;85.73;101183.41;109686;1283;22314;-79
2023/09/07 02:57:46;;;;;;;13.80;3.60;;;;;;;11.25;85.67;101182.95;109674;1285;22130;-79
2023/09/07 03:00:17;;;;;;;12.80;3.90;;;;;;;11.21;85.88;101181.88;109698;1280;22184;-79
2023/09/07 03:02:48;;;;;;;12.70;3.30;;;;;;;11.19;85.98;101179.47;109697;1280;22370;-79
2023/09/07 03:05:19;;;;;;;12.60;3.10;;;;;;;11.18;85.99;101182.96;109654;1285;22212;-80
2023/09/07 03:07:50;;;;;;;16.00;3.50;;;;;;;11.17;86.05;101180.55;109669;1285;23133;-80
2023/09/07 03:10:21;;;;;;;18.70;3.90;;;;;;;11.17;86.18;101180.55;109704;1285;22160;-79
2023/09/07 03:12:54;;;;;;;10.30;2.80;;;;;;;11.16;86.14;101178.55;109697;1285;22411;-79
2023/09/07 03:15:26;;;;;;;17.40;4.00;;;;;;;11.15;86.28;101181.81;109683;1285;22807;-79
2023/09/07 03:17:57;;;;;;;13.90;4.70;;;;;;;11.14;86.55;101182.50;109672;1285;22191;-79
2023/09/07 03:20:28;;;;;;;18.50;4.60;;;;;;;11.13;86.59;101183.09;109694;1282;23274;-79
2023/09/07 03:22:59;;;;;;;12.10;3.30;;;;;;;11.12;86.48;101177.95;109645;1285;22401;-79
2023/09/07 03:25:30;;;;;;;12.10;3.30;;;;;;;11.10;86.43;101180.28;109667;1280;22892;-79
2023/09/07 03:28:01;;;;;;;11.70;3.90;;;;;;;11.08;86.60;101180.58;109708;1283;22799;-79
2023/09/07 03:30:32;;;;;;;14.00;4.10;;;;;;;11.07;86.40;101183.19;109681;1280;23003;-79
2023/09/07 03:33:03;;;;;;;12.10;3.70;;;;;;;11.04;86.39;101181.28;109663;1279;22836;-79
2023/09/07 03:35:35;;;;;;;11.00;3.60;;;;;;;11.02;86.60;101182.08;109706;1285;22437;-79
2023/09/07 03:38:06;;;;;;;15.00;3.40;;;;;;;11.00;86.54;101182.31;109681;1285;22126;-79
2023/09/07 03:40:36;;;;;;;14.60;3.50;;;;;;;10.98;86.64;101181.29;109702;1279;22164;-79
2023/09/07 03:43:07;;;;;;;13.10;3.70;;;;;;;10.96;86.57;101186.73;109703;1279;22218;-79
2023/09/07 03:45:38;;;;;;;11.50;3.50;;;;;;;10.94;86.62;101186.98;109668;1280;22252;-78
2023/09/07 03:48:09;;;;;;;12.40;3.50;;;;;;;10.91;86.61;101185.02;109674;1285;22289;-79
2023/09/07 03:50:40;;;;;;;13.50;3.30;;;;;;;10.88;86.71;101182.08;109676;1278;22357;-80
2023/09/07 03:53:10;;;;;;;12.50;3.90;;;;;;;10.86;86.81;101181.23;109666;1285;22980;-80
2023/09/07 03:55:45;;;;;;;13.50;3.90;;;;;;;10.84;86.82;101184.10;109683;1279;22346;-79
2023/09/07 03:58:16;;;;;;;14.30;4.20;;;;;;;10.82;86.80;101180.84;109635;1279;22629;-80
2023/09/07 04:00:47;;;;;;;11.80;3.60;;;;;;;10.79;86.81;101178.94;109679;1276;22527;-79
2023/09/07 04:03:18;;;;;;;11.40;3.80;;;;;;;10.77;86.90;101177.90;109690;1278;22226;-79
2023/09/07 04:05:48;;;;;;;16.00;3.60;;;;;;;10.76;86.92;101178.27;109606;1283;23201;-79
2023/09/07 04:08:19;;;;;;;13.50;4.40;;;;;;;10.75;86.93;101178.48;109720;1285;22628;-79
2023/09/07 04:10:50;;;;;;;15.50;4.30;;;;;;;10.75;87.04;101183.96;109704;1285;23433;-80
2023/09/07 04:13:21;;;;;;;16.60;4.70;;;;;;;10.75;87.10;101184.83;109672;1280;22197;-78
2023/09/07 04:15:52;;;;;;;14.50;4.30;;;;;;;10.74;87.27;101186.77;109609;1277;22323;-78
2023/09/07 04:18:23;;;;;;;13.60;4.00;;;;;;;10.74;87.30;101193.27;109647;1279;23040;-78
2023/09/07 04:20:53;;;;;;;16.80;4.70;;;;;;;10.72;87.34;101194.44;109669;1285;22149;-77
2023/09/07 04:23:24;;;;;;;15.80;4.30;;;;;;;10.71;87.24;101193.85;109659;1285;22355;-79
2023/09/07 04:26:04;;;;;;;14.20;4.80;;;;;;;10.70;87.39;101198.22;109680;1285;23427;-78
2023/09/07 04:28:35;;;;;;;13.10;3.70;;;;;;;10.69;87.38;101200.32;109556;1285;22641;-79
2023/09/07 04:31:06;;;;;;;16.20;4.30;;;;;;;10.67;87.47;101198.08;109670;1285;22211;-78
2023/09/07 04:33:37;;;;;;;16.10;4.20;;;;;;;10.66;87.62;101199.14;109738;1285;23385;-78
2023/09/07 04:36:12;;;;;;;13.10;4.00;;;;;;;10.66;87.66;101202.19;109698;1285;22211;-78
2023/09/07 04:38:43;;;;;;;12.80;3.70;;;;;;;10.65;87.69;101204.61;109692;1285;22175;-78
2023/09/07 04:41:14;;;;;;;13.80;4.50;;;;;;;10.65;87.92;101202.77;109724;1285;22272;-78
2023/09/07 04:43:45;;;;;;;18.10;4.50;;;;;;;10.66;88.02;101208.64;109699;1285;22427;-80
2023/09/07 04:46:17;;;;;;;15.60;4.40;;;;;;;10.67;88.17;101206.64;109694;1285;22219;-78
2023/09/07 04:48:48;;;;;;;13.80;4.10;;;;;;;10.67;88.24;101207.33;109719;1285;23175;-78
2023/09/07 04:51:20;;;;;;;10.10;3.60;;;;;;;10.68;88.43;101208.02;109725;1285;22329;-78
2023/09/07 04:53:51;;;;;;;12.10;4.00;;;;;;;10.70;88.28;101208.83;109670;1285;22948;-78
2023/09/07 04:56:22;;;;;;;15.40;3.90;;;;;;;10.71;88.54;101212.13;109698;1285;23011;-79
2023/09/07 04:58:52;;;;;;;13.00;3.90;;;;;;;10.73;88.55;101211.02;109752;1276;22206;-78
2023/09/07 05:01:23;;;;;;;15.60;4.50;;;;;;;10.76;88.87;101212.80;109674;1285;22195;-78
2023/09/07 05:03:55;;;;;;;14.70;4.20;;;;;;;10.79;88.88;101213.31;109671;1285;22159;-78
2023/09/07 05:06:26;;;;;;;13.70;5.00;;;;;;;10.83;88.94;101216.90;109726;1285;22235;-78
2023/09/07 05:08:57;;;;;;;17.10;5.10;;;;;;;10.89;89.08;101217.59;109728;1285;22398;-78
2023/09/07 05:11:27;;;;;;;15.50;5.00;;;;;;;10.94;89.08;101218.09;109743;1282;22273;-79
2023/09/07 05:13:58;;;;;;;13.80;4.30;;;;;;;11.01;89.41;101219.88;109700;1285;22325;-79
2023/09/07 05:16:29;;;;;;;15.00;5.10;;;;;;;11.08;89.60;101220.88;109725;1285;22699;-79
2023/09/07 05:19:00;;;;;;;14.10;4.90;;;;;;;11.17;89.97;101223.99;109715;1285;22208;-80
2023/09/07 05:21:30;;;;;;;19.30;4.80;;;;;;;11.24;89.84;101224.11;109770;1285;22188;-78
2023/09/07 05:24:01;;;;;;;15.00;5.50;;;;;;;11.30;89.98;101225.61;109744;1285;22233;-79
2023/09/07 05:26:32;;;;;;;13.40;5.10;;;;;;;11.37;90.31;101227.45;109762;1285;22195;-80
2023/09/07 05:29:03;;;;;;;17.40;4.70;;;;;;;11.45;90.41;101231.30;109748;1285;22115;-79
2023/09/07 05:31:33;;;;;;;19.10;5.60;;;;;;;11.53;90.48;101233.13;109696;1285;22314;-77
2023/09/07 05:34:04;;;;;;;16.00;5.90;;;;;;;11.61;91.05;101237.84;109680;1281;22181;-78
2023/09/07 05:36:35;;;;;;;17.90;6.50;;;;;;;11.68;91.17;101237.89;109717;1285;22364;-83
2023/09/07 05:39:06;;;;;;;19.70;6.70;;;;;;;11.77;91.33;101240.96;109752;1280;23162;-79
2023/09/07 05:41:37;;;;;;;20.60;6.70;;;;;;;11.85;91.65;101244.52;109754;1285;22153;-79
2023/09/07 05:44:08;;;;;;;19.90;5.80;;;;;;;11.94;91.89;101244.67;109706;1285;22963;-79
2023/09/07 05:46:39;;;;;;;18.90;6.50;;;;;;;12.05;92.00;101241.84;109702;1285;22171;-81
2023/09/07 05:49:09;;;;;;;19.50;6.10;;;;;;;12.15;92.04;101245.54;109714;1285;22393;-81
2023/09/07 05:51:40;;;;;;;23.80;7.40;;;;;;;12.26;92.08;101248.45;109721;1285;22175;-81
2023/09/07 05:54:11;;;;;;;29.60;7.50;;;;;;;12.37;91.99;101244.87;109745;1278;22202;-81
2023/09/07 05:56:41;;;;;;;28.90;7.70;;;;;;;12.47;91.96;101241.36;109699;1285;22197;-81
2023/09/07 05:59:14;;;;;;;24.30;7.10;;;;;;;12.56;92.30;101248.21;109723;1285;22361;-81
2023/09/07 06:01:45;;;;;;;20.60;7.10;;;;;;;12.66;92.44;101249.37;109738;1285;22311;-81
2023/09/07 06:04:15;;;;;;;32.70;8.40;;;;;;;12.76;92.60;101248.99;109717;1285;22847;-81
2023/09/07 06:06:46;;;;;;;25.80;7.50;;;;;;;12.86;92.73;101253.23;109723;1285;22203;-81
2023/09/07 06:09:17;;;;;;;21.10;6.90;;;;;;;12.95;92.90;101252.55;109747;1273;22167;-82
2023/09/07 06:11:48;;;;;;;21.00;6.70;;;;;;;13.06;92.81;101258.13;109759;1280;23060;-81
2023/09/07 06:14:19;;;;;;;22.70;7.80;;;;;;;13.14;93.04;101255.96;109713;1281;22618;-81
2023/09/07 06:16:50;;;;;;;26.10;7.20;;;;;;;13.25;93.49;101254.83;109841;1285;22213;-81
2023/09/07 06:19:20;;;;;;;21.60;7.10;;;;;;;13.35;93.62;101258.09;109871;1285;22197;-81
2023/09/07 06:21:52;;;;;;;19.60;8.40;;;;;;;13.45;93.58;101256.09;109796;1285;22117;-81
2023/09/07 06:24:23;;;;;;;24.90;8.40;;;;;;;13.54;93.19;101262.63;109705;1285;22141;-81
2023/09/07 06:26:53;;;;;;;24.60;7.10;;;;;;;13.63;93.35;101260.08;109732;1285;22212;-81
2023/09/07 06:29:24;;;;;;;23.70;7.20;;;;;;;13.74;93.27;101263.86;109745;1285;22262;-79
2023/09/07 06:31:55;;;;;;;25.70;7.80;;;;;;;13.83;93.28;101260.93;109754;1274;22988;-78
2023/09/07 06:34:26;;;;;;;23.90;7.60;;;;;;;13.93;93.58;101260.94;109743;1285;22177;-77
2023/09/07 06:36:56;;;;;;;20.50;7.60;;;;;;;14.03;93.77;101262.39;109730;1280;22332;-78
2023/09/07 06:39:27;;;;;;;25.80;8.70;;;;;;;14.13;93.55;101265.04;109743;1285;22165;-78
2023/09/07 06:41:58;;;;;;;25.80;8.00;;;;;;;14.23;93.83;101265.63;109725;1285;22362;-79
2023/09/07 06:44:29;;;;;;;25.40;8.60;;;;;;;14.35;93.81;101264.80;109725;1285;22157;-78
2023/09/07 06:46:59;;;;;;;24.50;9.50;;;;;;;14.46;93.60;101266.82;109733;1284;22355;-78
2023/09/07 06:49:30;;;;;;;31.60;8.50;;;;;;;14.56;93.60;101266.16;109751;1285;22128;-77
2023/09/07 06:52:02;;;;;;;23.90;7.40;;;;;;;14.68;93.46;101271.70;109739;1285;22506;-78
2023/09/07 06:54:33;;;;;;;28.30;8.70;;;;;;;14.80;93.28;101274.60;109710;1283;22200;-78
2023/09/07 06:57:07;;;;;;;30.20;8.50;;;;;;;14.90;93.09;101277.52;109739;1285;22233;-78
2023/09/07 06:59:37;;;;;;;24.00;8.00;;;;;;;15.01;93.08;101275.87;109765;1285;22245;-78
2023/09/07 07:02:08;;;;;;;26.10;7.30;;;;;;;15.10;92.81;101280.01;109752;1285;22200;-78
2023/09/07 07:04:39;;;;;;;25.70;8.20;;;;;;;15.20;92.82;101279.88;109758;1285;22210;-79
2023/09/07 07:07:10;;;;;;;27.10;7.50;;;;;;;15.30;93.01;101283.77;109698;1283;22162;-78
2023/09/07 07:09:41;;;;;;;23.90;9.50;;;;;;;15.41;92.81;101286.27;109764;1285;22187;-78
2023/09/07 07:12:12;;;;;;;25.40;8.20;;;;;;;15.51;92.51;101286.20;109745;1276;22261;-78
2023/09/07 07:14:43;;;;;;;23.80;7.60;;;;;;;15.63;92.30;101288.05;109707;1285;22976;-79
2023/09/07 07:17:14;;;;;;;26.30;7.90;;;;;;;15.74;92.01;101289.46;109768;1285;22147;-78
2023/09/07 07:19:45;;;;;;;23.50;7.60;;;;;;;15.88;92.08;101287.97;109743;1283;22280;-78
2023/09/07 07:22:16;;;;;;;25.90;7.20;;;;;;;16.02;91.61;101290.58;109757;1285;22183;-78
2023/09/07 07:24:47;;;;;;;22.50;8.00;;;;;;;16.12;91.42;101286.23;109728;1285;22229;-78
2023/09/07 07:27:18;;;;;;;28.40;7.50;;;;;;;16.24;91.42;101288.91;109760;1285;22206;-79
2023/09/07 07:29:49;;;;;;;27.70;7.80;;;;;;;16.36;91.06;101289.93;109734;1285;22983;-78
2023/09/07 07:32:20;;;;;;;28.00;8.70;;;;;;;16.48;90.51;101288.60;109709;1285;22207;-79
2023/09/07 07:34:50;;;;;;;25.60;7.40;;;;;;;16.56;89.92;101288.04;109720;1285;22163;-78
2023/09/07 07:37:21;;;;;;;21.80;7.80;;;;;;;16.65;90.03;101286.81;109742;1285;22229;-79
2023/09/07 07:39:52;;;;;;;24.20;7.20;;;;;;;16.78;89.92;101292.08;109728;1285;22155;-79
2023/09/07 07:42:23;;;;;;;29.20;7.30;;;;;;;16.94;89.84;101291.16;109750;1285;22223;-79
2023/09/07 07:44:53;;;;;;;19.70;6.60;;;;;;;17.10;89.38;101295.31;109738;1285;22180;-79
2023/09/07 07:47:26;;;;;;;25.10;6.30;;;;;;;17.25;89.03;101295.34;109751;1285;22155;-79
2023/09/07 07:49:57;;;;;;;22.60;6.80;;;;;;;17.39;88.87;101294.64;109750;1285;22364;-79
2023/09/07 07:52:27;;;;;;;23.00;6.90;;;;;;;17.53;88.57;101296.92;109736;1285;22182;-78
2023/09/07 07:54:58;;;;;;;19.10;5.80;;;;;;;17.63;88.13;101297.62;109712;1285;22359;-79
2023/09/07 07:57:29;;;;;;;21.40;5.50;;;;;;;17.74;87.96;101300.53;109740;1285;22219;-79
2023/09/07 08:00:00;;;;;;;15.30;5.60;;;;;;;17.88;87.56;101299.84;109738;1285;22322;-79
2023/09/07 08:02:31;;;;;;;16.00;5.10;;;;;;;17.97;87.16;101293.73;109765;1285;22328;-78
2023/09/07 08:05:02;;;;;;;21.60;5.20;;;;;;;18.06;86.91;101291.52;109746;1274;22201;-80
2023/09/07 08:07:33;;;;;;;23.80;5.60;;;;;;;18.16;86.86;101291.63;109782;1285;22177;-80
2023/09/07 08:10:04;;;;;;;16.20;5.40;;;;;;;18.27;86.60;101288.64;109746;1285;22391;-79
2023/09/07 08:12:34;;;;;;;19.40;5.20;;;;;;;18.42;86.60;101287.53;109763;1285;22161;-80
2023/09/07 08:15:06;;;;;;;16.20;5.60;;;;;;;18.53;85.97;101289.02;109736;1277;22225;-79
2023/09/07 08:17:37;;;;;;;18.90;5.30;;;;;;;18.63;85.50;101289.83;109741;1285;22149;-79
2023/09/07 08:20:11;;;;;;;22.70;4.60;;;;;;;18.73;85.17;101288.61;109712;1278;22383;-77
2023/09/07 08:22:42;;;;;;;20.00;4.80;;;;;;;18.85;84.77;101287.46;109749;1285;22981;-77
2023/09/07 08:25:14;;;;;;;16.90;5.00;;;;;;;18.97;84.51;101290.62;109704;1286;22237;-79
2023/09/07 08:27:46;;;;;;;21.80;6.90;;;;;;;19.10;84.52;101287.90;109722;1285;22297;-78
2023/09/07 08:30:19;;;;;;;24.30;8.80;;;;;;;19.22;84.16;101291.31;109767;1279;22936;-77
2023/09/07 08:32:51;;;;;;;18.00;6.00;;;;;;;19.36;83.32;101290.41;109727;1280;22179;-77
2023/09/07 08:35:26;;;;;;;13.20;4.70;;;;;;;19.52;83.02;101284.13;109732;1285;22173;-79
2023/09/07 08:38:01;;;;;;;20.30;6.50;;;;;;;19.64;82.51;101284.57;109756;1279;22388;-80
2023/09/07 08:40:32;;;;;;;16.80;4.60;;;;;;;19.72;82.46;101287.30;109704;1285;22138;-79
2023/09/07 08:43:06;;;;;;;30.20;10.90;;;;;;;19.82;81.32;101283.48;109735;1285;22296;-80
2023/09/07 08:45:42;;;;;;;18.60;6.10;;;;;;;19.89;80.31;101284.42;109717;1285;22950;-79
2023/09/07 08:48:15;;;;;;;13.10;4.00;;;;;;;19.97;79.99;101282.14;109777;1282;22161;-84
2023/09/07 08:50:49;;;;;;;15.90;3.90;;;;;;;20.04;79.37;101277.23;109782;1285;23026;-82
2023/09/07 08:53:22;;;;;;;13.60;3.50;;;;;;;20.15;78.75;101276.10;109722;1285;22198;-82
2023/09/07 08:55:52;;;;;;;12.20;2.70;;;;;;;20.23;78.11;101271.61;109743;1285;22179;-82
2023/09/07 08:58:23;;;;;;;10.60;2.50;;;;;;;20.32;77.72;101277.61;109787;1285;22140;-80
2023/09/07 09:00:57;;;;;;;11.40;3.50;;;;;;;20.45;77.42;101276.77;109758;1285;22353;-80
2023/09/07 09:03:29;;;;;;;11.80;3.30;;;;;;;20.56;76.85;101276.09;109779;1282;22209;-79
2023/09/07 09:06:00;;;;;;;10.70;3.30;;;;;;;20.66;76.16;101275.16;109734;1285;23023;-78
2023/09/07 09:08:31;;;;;;;14.20;2.90;;;;;;;20.76;75.62;101276.70;109757;1285;22181;-79
2023/09/07 09:11:05;;;;;;;13.00;3.40;;;;;;;20.88;75.44;101277.91;109772;1277;22345;-81
2023/09/07 09:13:36;;;;;;;10.10;3.10;;;;;;;20.99;74.16;101276.10;109764;1280;22200;-80
2023/09/07 09:16:06;;;;;;;10.00;2.50;;;;;;;21.08;74.01;101270.73;109765;1285;22944;-79
2023/09/07 09:18:37;;;;;;;10.90;2.70;;;;;;;21.16;73.44;101273.62;109749;1285;22189;-80
2023/09/07 09:21:08;;;;;;;10.00;3.00;;;;;;;21.23;73.06;101269.84;109753;1285;22161;-80
2023/09/07 09:23:40;;;;;;;9.70;2.50;;;;;;;21.31;72.19;101272.55;109721;1285;22856;-80
2023/09/07 09:26:12;;;;;;;14.80;3.20;;;;;;;21.40;71.73;101265.88;109736;1285;23014;-79
2023/09/07 09:28:44;;;;;;;9.70;2.40;;;;;;;21.48;71.41;101266.63;109770;1285;22122;-80
2023/09/07 09:31:15;;;;;;;9.20;2.40;;;;;;;21.56;70.99;101267.22;109767;1280;22150;-82
2023/09/07 09:33:51;;;;;;;12.00;3.50;;;;;;;21.64;70.64;101266.94;109772;1285;22956;-80
2023/09/07 09:36:22;;;;;;;11.70;2.50;;;;;;;21.79;70.21;101268.08;109752;1285;22878;-81
2023/09/07 09:38:54;;;;;;;19.50;3.10;;;;;;;21.93;69.64;101265.10;109769;1283;22176;-82
2023/09/07 09:41:25;;;;;;;9.60;2.60;;;;;;;22.04;69.05;101266.32;109748;1285;22264;-80
2023/09/07 09:43:58;;;;;;;10.20;2.50;;;;;;;22.14;68.80;101264.91;109749;1285;22205;-79
2023/09/07 09:46:32;;;;;;;8.20;2.10;;;;;;;22.23;67.88;101262.88;109722;1274;22208;-81
2023/09/07 09:49:04;;;;;;;10.90;2.60;;;;;;;22.29;67.58;101262.60;109732;1285;22180;-80
2023/09/07 09:51:35;;;;;;;11.30;2.70;;;;;;;22.33;67.16;101260.06;109770;1286;22193;-80
2023/09/07 09:54:07;;;;;;;8.00;2.20;;;;;;;22.39;66.94;101261.80;109770;1285;22354;-80
2023/09/07 09:56:38;;;;;;;8.10;2.30;;;;;;;22.48;67.02;101260.42;109729;1285;23058;-81
2023/09/07 09:59:20;;;;;;;10.10;2.80;;;;;;;22.54;66.39;101262.93;109766;1285;22171;-83
2023/09/07 10:01:53;;;;;;;9.70;2.00;;;;;;;22.60;65.65;101262.62;109891;1285;22174;-80
2023/09/07 10:04:25;;;;;;;14.50;3.40;;;;;;;22.66;65.45;101260.93;109819;1285;22143;-79
2023/09/07 10:07:05;;;;;;;11.10;2.40;;;;;;;22.74;65.28;101263.88;105645;1285;5410678;-78
2023/09/07 10:09:39;;;;;;;9.60;2.10;;;;;;;22.83;64.79;101264.94;109777;1286;22790;-78
2023/09/07 10:12:13;;;;;;;10.70;2.70;;;;;;;22.85;63.83;101259.58;109708;1278;22216;-78
2023/09/07 10:14:50;;;;;;;11.30;2.40;;;;;;;22.86;63.43;101262.30;109739;1286;22198;-78
2023/09/07 10:17:25;;;;;;;9.30;2.50;;;;;;;22.90;63.58;101260.06;109763;1285;22662;-78
2023/09/07 10:20:06;;;;;;;9.20;2.90;;;;;;;22.94;63.36;101258.66;109794;1278;22709;-79
2023/09/07 10:22:37;;;;;;;10.10;3.20;;;;;;;22.98;63.00;101255.69;109803;1283;22307;-78
2023/09/07 10:25:18;;;;;;;9.80;2.70;;;;;;;23.02;62.81;101256.72;109757;1285;22959;-78
2023/09/07 10:27:49;;;;;;;8.20;2.30;;;;;;;23.06;61.67;101260.33;109798;1285;22210;-78
2023/09/07 10:30:23;;;;;;;10.10;2.50;;;;;;;23.09;62.00;101259.97;109773;1276;22122;-77
2023/09/07 10:32:54;;;;;;;9.30;2.60;;;;;;;23.12;61.60;101252.77;109785;1283;22885;-77
2023/09/07 10:35:25;;;;;;;8.10;2.30;;;;;;;23.18;61.39;101247.80;109771;1285;22224;-78
2023/09/07 10:37:56;;;;;;;11.20;2.20;;;;;;;23.24;61.62;101245.58;109785;1285;22215;-78
2023/09/07 10:40:27;;;;;;;6.60;2.00;;;;;;;23.29;60.94;101243.52;109793;1285;22295;-78
2023/09/07 10:43:08;;;;;;;9.10;2.10;;;;;;;23.35;60.65;101247.03;109780;1279;22912;-78
2023/09/07 10:45:39;;;;;;;8.90;1.90;;;;;;;23.37;60.12;101244.45;109767;1280;22151;-78
2023/09/07 10:48:11;;;;;;;7.60;2.00;;;;;;;23.42;60.14;101244.27;109805;1282;22149;-78
2023/09/07 10:50:52;;;;;;;10.90;2.40;;;;;;;23.46;59.58;101243.95;109795;1285;22172;-78
2023/09/07 10:53:30;;;;;;;9.00;2.10;;;;;;;23.50;59.60;101240.81;109744;1286;22201;-77
2023/09/07 10:56:04;;;;;;;7.30;2.10;;;;;;;23.55;59.26;101227.55;109766;1278;22233;-77
2023/09/07 10:58:38;;;;;;;7.20;2.00;;;;;;;23.59;59.08;101224.42;109749;1286;22910;-77
2023/09/07 11:01:09;;;;;;;8.30;2.10;;;;;;;23.61;58.51;101222.87;109807;1278;22148;-78
2023/09/07 11:03:40;;;;;;;8.30;2.20;;;;;;;23.65;58.87;101221.55;109803;1281;22164;-78
2023/09/07 11:06:14;;;;;;;8.30;1.80;;;;;;;23.69;58.33;101222.11;109798;1285;22309;-78
2023/09/07 11:08:44;;;;;;;9.50;2.00;;;;;;;23.71;58.05;101221.19;109827;1280;22178;-77
2023/09/07 11:11:16;;;;;;;7.90;1.70;;;;;;;23.75;57.82;101223.84;109832;1285;22192;-77
2023/09/07 11:13:48;;;;;;;8.60;2.10;;;;;;;23.79;57.43;101220.20;109809;1280;22150;-78
2023/09/07 11:16:19;;;;;;;7.00;2.00;;;;;;;23.81;56.73;101222.80;109771;1285;22212;-77
2023/09/07 11:18:51;;;;;;;7.20;2.20;;;;;;;23.83;56.26;101221.27;109813;1285;22205;-77
2023/09/07 11:21:22;;;;;;;9.60;2.10;;;;;;;23.84;56.59;101214.13;109802;1285;22213;-78
2023/09/07 11:23:53;;;;;;;8.30;2.00;;;;;;;23.85;56.40;101216.29;109766;1285;23031;-78
2023/09/07 11:26:24;;;;;;;5.70;1.70;;;;;;;23.86;56.13;101217.77;109783;1285;22161;-78
2023/09/07 11:28:55;;;;;;;7.40;2.20;;;;;;;23.89;55.96;101212.27;109799;1285;22199;-78